createdAt,value
2022-12-19T00:01:28.520Z,4.88
2022-12-19T00:04:26.410Z,4.57
2022-12-19T00:07:13.185Z,4.32
2022-12-19T00:10:06.405Z,4.50
2022-12-19T00:12:53.197Z,4.78
2022-12-19T00:15:47.571Z,4.20
2022-12-19T00:18:41.371Z,3.92
2022-12-19T00:21:30.663Z,4.45
2022-12-19T00:24:24.349Z,4.63
2022-12-19T00:27:17.433Z,4.50
2022-12-19T00:30:18.404Z,4.65
2022-12-19T00:33:05.653Z,4.97
2022-12-19T00:36:07.376Z,4.60
2022-12-19T00:38:56.219Z,4.47
2022-12-19T00:41:49.365Z,5.07
2022-12-19T00:44:42.346Z,4.47
2022-12-19T00:47:35.342Z,4.53
2022-12-19T00:50:22.243Z,4.78
2022-12-19T00:53:15.388Z,5.15
2022-12-19T00:56:04.044Z,4.60
2022-12-19T00:58:57.372Z,4.95
2022-12-19T01:01:44.396Z,4.60
2022-12-19T01:04:41.541Z,5.15
2022-12-19T01:07:28.803Z,5.13
2022-12-19T01:10:22.403Z,5.20
2022-12-19T01:13:09.257Z,5.07
2022-12-19T01:16:03.378Z,4.63
2022-12-19T01:19:03.399Z,4.85
2022-12-19T01:21:59.363Z,4.60
2022-12-19T01:24:53.405Z,4.90
2022-12-19T01:27:46.411Z,4.97
2022-12-19T01:30:40.399Z,4.82
2022-12-19T01:33:28.582Z,4.63
2022-12-19T01:36:28.414Z,4.57
2022-12-19T01:39:15.178Z,4.50
2022-12-19T01:42:08.355Z,4.30
2022-12-19T01:45:13.666Z,4.78
2022-12-19T01:48:16.360Z,4.35
2022-12-19T01:51:16.444Z,4.78
2022-12-19T01:54:15.353Z,4.50
2022-12-19T01:57:20.353Z,5.00
2022-12-19T02:00:10.000Z,4.90
2022-12-19T02:03:15.463Z,4.70
2022-12-19T02:06:05.490Z,4.80
2022-12-19T02:09:00.369Z,4.85
2022-12-19T02:11:57.350Z,4.65
2022-12-19T02:14:51.347Z,4.97
2022-12-19T02:18:06.129Z,4.60
2022-12-19T02:21:19.351Z,4.40
2022-12-19T02:24:11.726Z,4.43
2022-12-19T02:27:17.363Z,4.53
2022-12-19T02:30:10.969Z,4.47
2022-12-19T02:33:30.423Z,4.93
2022-12-19T02:36:36.359Z,4.53
2022-12-19T02:39:38.415Z,4.75
2022-12-19T02:42:42.498Z,4.30
2022-12-19T02:45:42.513Z,4.78
2022-12-19T02:48:36.451Z,4.07
2022-12-19T02:51:29.423Z,4.68
2022-12-19T02:54:23.411Z,3.92
2022-12-19T02:57:28.436Z,4.32
2022-12-19T03:00:22.393Z,4.60
2022-12-19T03:03:28.443Z,4.28
2022-12-19T03:06:27.474Z,4.10
2022-12-19T03:09:32.482Z,4.85
2022-12-19T03:12:29.061Z,4.22
2022-12-19T03:15:22.429Z,3.97
2022-12-19T03:18:10.088Z,4.30
2022-12-19T03:21:27.452Z,4.07
2022-12-19T03:24:22.485Z,4.28
2022-12-19T03:27:27.516Z,4.15
2022-12-19T03:30:21.503Z,3.72
2022-12-19T03:33:11.922Z,3.83
2022-12-19T03:36:10.456Z,4.07
2022-12-19T03:39:08.436Z,4.47
2022-12-19T03:42:23.474Z,4.00
2022-12-19T03:45:13.961Z,4.43
2022-12-19T03:48:14.513Z,4.10
2022-12-19T03:51:25.440Z,4.40
2022-12-19T03:54:34.472Z,4.88
2022-12-19T03:57:34.500Z,4.30
2022-12-19T04:00:21.730Z,4.40
2022-12-19T04:03:16.507Z,3.50
2022-12-19T04:06:04.769Z,4.18
2022-12-19T04:08:58.523Z,4.35
2022-12-19T04:11:56.508Z,3.80
2022-12-19T04:14:44.136Z,4.15
2022-12-19T04:17:47.470Z,3.90
2022-12-19T04:20:47.889Z,4.47
2022-12-19T04:23:41.551Z,4.20
2022-12-19T04:26:37.565Z,4.05
2022-12-19T04:29:40.549Z,4.40
2022-12-19T04:32:28.902Z,3.88
2022-12-19T04:35:22.571Z,4.50
2022-12-19T04:38:09.467Z,4.00
2022-12-19T04:41:03.497Z,3.55
2022-12-19T04:43:56.511Z,3.65
2022-12-19T04:46:43.339Z,3.67
2022-12-19T04:49:36.553Z,3.65
2022-12-19T04:52:23.479Z,3.92
2022-12-19T04:55:17.576Z,3.65
2022-12-19T04:58:13.750Z,3.78
2022-12-19T05:01:05.738Z,4.25
2022-12-19T05:04:04.235Z,3.58
2022-12-19T05:06:51.729Z,3.55
2022-12-19T05:09:45.496Z,4.25
2022-12-19T05:12:32.396Z,3.50
2022-12-19T05:15:25.517Z,3.42
2022-12-19T05:18:18.526Z,3.75
2022-12-19T05:21:06.235Z,3.47
2022-12-19T05:23:59.521Z,3.90
2022-12-19T05:26:54.580Z,3.63
2022-12-19T05:29:47.571Z,3.65
2022-12-19T05:32:41.564Z,3.55
2022-12-19T05:35:34.516Z,3.47
2022-12-19T05:38:21.356Z,3.80
2022-12-19T05:41:20.537Z,3.47
2022-12-19T05:44:13.569Z,3.55
2022-12-19T05:47:06.535Z,3.78
2022-12-19T05:49:59.551Z,3.28
2022-12-19T05:52:52.640Z,3.40
2022-12-19T05:55:39.612Z,3.50
2022-12-19T05:58:32.581Z,3.63
2022-12-19T06:01:31.810Z,4.15
2022-12-19T06:04:25.567Z,3.53
2022-12-19T06:07:16.453Z,3.50
2022-12-19T06:10:13.615Z,3.67
2022-12-19T06:13:06.586Z,3.78
2022-12-19T06:16:21.614Z,3.65
2022-12-19T06:19:15.619Z,3.60
2022-12-19T06:22:02.444Z,3.63
2022-12-19T06:24:55.608Z,3.40
2022-12-19T06:27:49.128Z,3.63
2022-12-19T06:30:42.935Z,3.35
2022-12-19T06:33:31.065Z,3.40
2022-12-19T06:36:30.616Z,3.35
2022-12-19T06:39:17.517Z,3.42
2022-12-19T06:42:29.609Z,3.30
2022-12-19T06:45:16.958Z,3.72
2022-12-19T06:48:10.545Z,3.40
2022-12-19T06:50:57.668Z,3.10
2022-12-19T06:53:51.577Z,3.25
2022-12-19T06:56:40.149Z,3.20
2022-12-19T06:59:33.697Z,3.38
2022-12-19T07:02:36.682Z,3.20
2022-12-19T07:05:30.636Z,3.17
2022-12-19T07:08:17.507Z,3.30
2022-12-19T07:11:11.571Z,2.80
2022-12-19T07:14:05.548Z,3.17
2022-12-19T07:16:55.411Z,3.10
2022-12-19T07:19:49.608Z,2.97
2022-12-19T07:22:37.355Z,3.83
2022-12-19T07:25:30.697Z,2.95
2022-12-19T07:28:24.640Z,3.28
2022-12-19T07:31:17.594Z,3.30
2022-12-19T07:34:04.537Z,3.20
2022-12-19T07:36:57.620Z,3.17
2022-12-19T07:39:50.569Z,3.10
2022-12-19T07:42:37.390Z,2.88
2022-12-19T07:45:30.741Z,3.13
2022-12-19T07:48:24.638Z,2.60
2022-12-19T07:51:11.467Z,2.75
2022-12-19T07:54:05.858Z,3.00
2022-12-19T07:57:02.809Z,3.15
2022-12-19T07:59:49.759Z,3.00
2022-12-19T08:02:43.726Z,2.90
2022-12-19T08:05:37.744Z,2.90
2022-12-19T08:08:31.587Z,2.90
2022-12-19T08:11:27.286Z,3.05
2022-12-19T08:14:22.649Z,2.92
2022-12-19T08:17:25.091Z,2.80
2022-12-19T08:20:18.655Z,3.20
2022-12-19T08:23:05.573Z,2.80
2022-12-19T08:26:12.673Z,3.80
2022-12-19T08:29:06.737Z,2.80
2022-12-19T08:32:06.672Z,2.63
2022-12-19T08:34:55.052Z,2.90
2022-12-19T08:37:48.743Z,2.65
2022-12-19T08:40:35.591Z,2.50
2022-12-19T08:43:28.660Z,3.00
2022-12-19T08:46:18.281Z,2.75
2022-12-19T08:49:11.661Z,2.50
2022-12-19T08:52:04.656Z,2.70
2022-12-19T08:54:54.589Z,2.40
2022-12-19T08:57:47.602Z,2.53
2022-12-19T09:00:34.410Z,2.55
2022-12-19T09:03:29.510Z,2.70
2022-12-19T09:06:37.816Z,2.65
2022-12-19T09:09:31.664Z,2.90
2022-12-19T09:12:18.724Z,2.22
2022-12-19T09:15:12.687Z,2.50
2022-12-19T09:17:59.648Z,2.42
2022-12-19T09:20:52.675Z,2.83
2022-12-19T09:23:40.799Z,2.60
2022-12-19T09:26:34.673Z,2.33
2022-12-19T09:29:35.654Z,2.10
2022-12-19T09:32:29.661Z,2.53
2022-12-19T09:35:27.039Z,2.40
2022-12-19T09:38:23.669Z,2.55
2022-12-19T09:41:13.531Z,3.13
2022-12-19T09:44:27.705Z,5.10
2022-12-19T09:47:24.731Z,6.65
2022-12-19T09:50:40.718Z,2.80
2022-12-19T09:53:53.810Z,4.03
2022-12-19T09:56:45.665Z,2.38
2022-12-19T09:59:49.952Z,2.40
2022-12-19T10:03:06.156Z,2.47
2022-12-19T10:07:12.935Z,2.38
2022-12-19T10:12:18.116Z,5.53
2022-12-19T10:13:03.646Z,2.40
2022-12-19T10:16:19.723Z,2.30
2022-12-19T10:19:16.786Z,2.60
2022-12-19T10:22:28.711Z,2.17
2022-12-19T10:25:34.715Z,2.83
2022-12-19T10:28:43.697Z,3.55
2022-12-19T10:32:03.868Z,3.25
2022-12-19T10:34:53.243Z,2.60
2022-12-19T10:37:54.695Z,2.38
2022-12-19T10:41:00.811Z,2.40
2022-12-19T10:44:15.770Z,2.65
2022-12-19T10:47:08.803Z,2.40
2022-12-19T10:50:09.014Z,3.00
2022-12-19T10:53:13.725Z,4.00
2022-12-19T10:56:19.101Z,2.30
2022-12-19T10:59:26.698Z,2.15
2022-12-19T11:02:35.442Z,2.30
2022-12-19T11:05:38.790Z,2.88
2022-12-19T11:08:28.634Z,2.80
2022-12-19T11:14:29.751Z,2.38
2022-12-19T11:17:37.907Z,2.60
2022-12-19T11:27:53.494Z,4.13
2022-12-19T11:29:32.717Z,2.40
2022-12-19T11:30:25.966Z,4.25
2022-12-19T11:30:48.365Z,2.30
2022-12-19T11:34:37.359Z,2.53
2022-12-19T11:37:45.771Z,4.78
2022-12-19T11:40:50.952Z,2.72
2022-12-19T11:43:54.784Z,2.13
2022-12-19T11:47:01.777Z,2.38
2022-12-19T11:49:59.787Z,2.50
2022-12-19T11:53:04.849Z,3.30
2022-12-19T11:56:16.418Z,3.22
2022-12-19T11:59:22.723Z,1.92
2022-12-19T12:02:33.798Z,2.83
2022-12-19T12:05:29.802Z,4.68
2022-12-19T12:10:35.952Z,2.45
2022-12-19T12:19:49.565Z,2.20
2022-12-19T12:25:03.341Z,2.78
2022-12-19T12:31:19.239Z,2.25
2022-12-19T12:31:41.205Z,3.83
2022-12-19T12:31:44.723Z,3.80
2022-12-19T12:35:08.606Z,2.67
2022-12-19T12:35:48.608Z,2.65
2022-12-19T12:38:10.947Z,2.20
2022-12-19T12:40:49.765Z,2.40
2022-12-19T12:44:16.803Z,3.10
2022-12-19T12:47:21.795Z,2.60
2022-12-19T12:50:22.855Z,2.67
2022-12-19T12:53:12.880Z,3.05
2022-12-19T12:56:13.591Z,2.97
2022-12-19T12:59:00.608Z,2.40
2022-12-19T13:02:02.056Z,3.92
2022-12-19T13:04:58.764Z,2.35
2022-12-19T13:08:01.797Z,2.42
2022-12-19T13:11:12.048Z,2.20
2022-12-19T13:14:05.899Z,2.53
2022-12-19T13:16:59.846Z,3.22
2022-12-19T13:20:06.944Z,2.80
2022-12-19T13:23:12.835Z,3.20
2022-12-19T13:26:13.709Z,2.00
2022-12-19T13:29:34.810Z,2.30
2022-12-19T13:32:22.651Z,3.83
2022-12-19T13:37:42.418Z,3.38
2022-12-19T13:39:49.082Z,3.45
2022-12-19T13:42:05.838Z,2.10
2022-12-19T13:45:02.782Z,2.30
2022-12-19T13:47:56.846Z,2.63
2022-12-19T13:50:53.781Z,2.80
2022-12-19T13:53:52.995Z,2.97
2022-12-19T13:56:57.810Z,2.22
2022-12-19T13:59:59.959Z,3.47
2022-12-19T14:02:55.279Z,2.42
2022-12-19T14:06:17.343Z,2.47
2022-12-19T14:11:24.692Z,2.35
2022-12-19T14:14:01.377Z,2.95
2022-12-19T14:16:22.854Z,2.25
2022-12-19T14:19:37.877Z,1.90
2022-12-19T14:22:33.820Z,2.10
2022-12-19T14:28:14.182Z,2.55
2022-12-19T14:28:54.575Z,2.45
2022-12-19T14:32:23.784Z,2.38
2022-12-19T14:36:05.379Z,2.97
2022-12-19T14:39:24.147Z,3.38
2022-12-19T14:42:03.055Z,2.67
2022-12-19T14:53:10.923Z,2.20
2022-12-19T14:54:02.055Z,4.18
2022-12-19T14:54:40.478Z,4.18
2022-12-19T14:56:17.492Z,3.08
2022-12-19T14:59:03.967Z,2.80
2022-12-19T15:02:33.979Z,2.38
2022-12-19T15:05:22.247Z,2.28
2022-12-19T15:09:02.399Z,2.40
2022-12-19T15:14:20.862Z,6.32
2022-12-19T15:15:32.854Z,4.68
2022-12-19T15:18:45.902Z,3.45
2022-12-19T15:21:38.841Z,2.45
2022-12-19T15:24:31.892Z,8.20
2022-12-19T15:27:24.833Z,3.03
2022-12-19T15:30:23.956Z,3.47
2022-12-19T15:33:23.899Z,5.50
2022-12-19T15:36:10.763Z,4.40
2022-12-19T15:39:03.904Z,2.50
2022-12-19T15:41:53.611Z,2.45
2022-12-19T15:44:48.940Z,5.57
2022-12-19T15:47:43.907Z,2.72
2022-12-19T15:50:38.864Z,2.38
2022-12-19T15:53:40.269Z,4.13
2022-12-19T15:56:36.905Z,3.35
2022-12-19T15:59:44.913Z,3.42
2022-12-19T16:02:56.875Z,2.80
2022-12-19T16:05:46.670Z,2.33
2022-12-19T16:08:34.083Z,3.17
2022-12-19T16:11:30.920Z,4.63
2022-12-19T16:14:18.245Z,3.00
2022-12-19T16:17:12.955Z,3.45
2022-12-19T16:20:05.918Z,2.53
2022-12-19T16:22:53.438Z,3.80
2022-12-19T16:25:52.852Z,2.80
2022-12-19T16:28:46.007Z,2.60
2022-12-19T16:31:38.949Z,2.92
2022-12-19T16:34:32.928Z,2.50
2022-12-19T16:37:31.965Z,2.72
2022-12-19T16:40:27.886Z,2.30
2022-12-19T16:43:26.882Z,3.22
2022-12-19T16:46:25.985Z,3.25
2022-12-19T16:49:23.940Z,3.30
2022-12-19T16:52:10.823Z,2.72
2022-12-19T16:55:04.015Z,2.45
2022-12-19T16:58:01.897Z,2.47
2022-12-19T17:00:59.011Z,3.10
2022-12-19T17:03:46.163Z,2.72
2022-12-19T17:06:39.952Z,3.85
2022-12-19T17:09:32.935Z,2.55
2022-12-19T17:12:26.900Z,4.05
2022-12-19T17:15:38.980Z,3.42
2022-12-19T17:18:56.363Z,5.45
2022-12-19T17:21:51.973Z,20.65
2022-12-19T17:24:38.886Z,32.03
2022-12-19T17:28:28.420Z,30.95
2022-12-19T17:35:42.189Z,25.30
2022-12-19T17:39:06.965Z,21.30
2022-12-19T17:42:03.957Z,20.42
2022-12-19T17:44:51.313Z,18.50
2022-12-19T17:47:44.936Z,20.88
2022-12-19T17:50:40.770Z,19.45
2022-12-19T17:53:33.967Z,13.45
2022-12-19T17:56:23.466Z,21.33
2022-12-19T17:59:18.153Z,16.17
2022-12-19T18:02:24.196Z,13.73
2022-12-19T18:08:41.982Z,13.23
2022-12-19T18:11:39.949Z,11.55
2022-12-19T18:14:36.036Z,9.90
2022-12-19T18:21:32.651Z,8.95
2022-12-19T18:24:19.519Z,9.90
2022-12-19T18:27:14.023Z,8.48
2022-12-19T18:30:14.029Z,8.05
2022-12-19T18:33:03.069Z,8.32
2022-12-19T18:35:58.855Z,8.40
2022-12-19T18:38:46.351Z,7.25
2022-12-19T18:41:40.038Z,7.60
2022-12-19T18:44:27.074Z,7.97
2022-12-19T18:47:27.040Z,8.20
2022-12-19T18:50:25.218Z,6.97
2022-12-19T18:53:20.972Z,8.60
2022-12-19T18:56:12.079Z,7.70
2022-12-19T18:59:10.068Z,6.88
2022-12-19T19:01:57.813Z,6.05
2022-12-19T19:04:51.990Z,7.70
2022-12-19T19:07:38.973Z,5.20
2022-12-19T19:10:35.982Z,6.20
2022-12-19T19:13:25.687Z,6.68
2022-12-19T19:16:27.017Z,6.28
2022-12-19T19:19:18.390Z,5.50
2022-12-19T19:22:11.980Z,5.55
2022-12-19T19:24:59.706Z,5.65
2022-12-19T19:27:53.425Z,4.72
2022-12-19T19:30:47.834Z,7.47
2022-12-19T19:33:47.038Z,5.72
2022-12-19T19:36:43.973Z,4.70
2022-12-19T19:39:40.059Z,4.57
2022-12-19T19:42:33.030Z,4.18
2022-12-19T19:45:19.934Z,4.63
2022-12-19T19:48:14.986Z,4.13
2022-12-19T19:51:03.249Z,4.50
2022-12-19T19:53:57.069Z,5.30
2022-12-19T19:56:50.044Z,6.22
2022-12-19T19:59:43.003Z,4.78
2022-12-19T20:02:30.378Z,4.78
2022-12-19T20:05:24.093Z,4.22
2022-12-19T20:08:11.389Z,4.78
2022-12-19T20:14:49.310Z,3.60
2022-12-19T20:17:36.172Z,4.70
2022-12-19T20:20:30.041Z,4.93
2022-12-19T21:15:54.379Z,2.97
2022-12-19T21:18:43.213Z,3.03
2022-12-19T21:21:37.144Z,2.95
2022-12-19T21:24:24.067Z,3.30
2022-12-19T21:27:18.066Z,3.00
2022-12-19T21:30:05.313Z,3.45
2022-12-19T21:32:59.092Z,2.83
2022-12-19T21:35:53.877Z,3.53
2022-12-19T21:38:47.124Z,2.53
2022-12-19T21:41:41.151Z,2.60
2022-12-19T21:44:34.083Z,2.88
2022-12-19T21:47:28.105Z,3.55
2022-12-19T21:50:28.119Z,2.50
2022-12-19T21:53:22.093Z,2.20
2022-12-19T21:56:16.940Z,4.25
2022-12-19T21:59:13.079Z,4.07
2022-12-19T22:02:06.213Z,3.33
2022-12-19T22:05:00.091Z,2.75
2022-12-19T22:07:46.931Z,2.80
2022-12-19T22:10:40.152Z,2.42
2022-12-19T22:13:27.165Z,3.20
2022-12-19T22:16:22.702Z,2.42
2022-12-19T22:19:19.127Z,4.85
2022-12-19T22:22:13.196Z,2.60
2022-12-19T22:25:06.326Z,2.53
2022-12-19T22:28:02.157Z,2.60
2022-12-19T22:30:55.334Z,2.40
2022-12-19T22:33:49.116Z,2.70
2022-12-19T22:36:46.113Z,3.03
2022-12-19T22:39:39.142Z,2.85
2022-12-19T22:42:27.871Z,4.07
2022-12-19T22:45:21.145Z,2.55
2022-12-19T22:48:14.170Z,3.72
2022-12-19T22:51:17.243Z,2.83
2022-12-19T22:54:11.124Z,2.47
2022-12-19T22:57:11.137Z,2.25
2022-12-19T23:00:04.240Z,3.72
2022-12-19T23:02:57.316Z,2.75
2022-12-19T23:05:50.144Z,2.28
2022-12-19T23:08:46.164Z,2.40
2022-12-19T23:11:36.915Z,2.50
2022-12-19T23:14:30.296Z,2.20
2022-12-19T23:17:17.538Z,2.15
2022-12-19T23:20:12.196Z,3.70
2022-12-19T23:22:59.039Z,3.75
2022-12-19T23:25:53.210Z,2.40
2022-12-19T23:28:40.433Z,3.25
2022-12-19T23:31:35.196Z,3.35
2022-12-19T23:34:28.135Z,1.90
2022-12-19T23:37:14.984Z,2.03
2022-12-19T23:40:08.183Z,1.80
2022-12-19T23:42:55.406Z,2.20
2022-12-19T23:45:49.236Z,1.85
2022-12-19T23:48:43.225Z,2.08
2022-12-19T23:51:43.244Z,2.65
2022-12-19T23:54:37.231Z,2.05
2022-12-19T23:57:30.184Z,3.05
